sensor_id;sensor_type;location;lat;lon;timestamp;P1;durP1;ratioP1;P2;durP2;ratioP2
17618;SDS011;8928;51.678;6.074;2024-01-11T00:01:40;51.10;;;18.40;;
17618;SDS011;8928;51.678;6.074;2024-01-11T00:04:31;51.57;;;18.10;;
17618;SDS011;8928;51.678;6.074;2024-01-11T00:07:18;53.57;;;17.70;;
17618;SDS011;8928;51.678;6.074;2024-01-11T00:10:05;53.00;;;18.37;;
17618;SDS011;8928;51.678;6.074;2024-01-11T00:12:53;56.43;;;18.60;;
17618;SDS011;8928;51.678;6.074;2024-01-11T00:15:41;54.63;;;17.97;;
17618;SDS011;8928;51.678;6.074;2024-01-11T00:18:28;56.50;;;17.70;;
17618;SDS011;8928;51.678;6.074;2024-01-11T00:21:15;51.40;;;18.03;;
17618;SDS011;8928;51.678;6.074;2024-01-11T00:24:02;52.00;;;18.03;;
17618;SDS011;8928;51.678;6.074;2024-01-11T00:26:50;50.43;;;17.90;;
17618;SDS011;8928;51.678;6.074;2024-01-11T00:29:37;48.93;;;18.00;;
17618;SDS011;8928;51.678;6.074;2024-01-11T00:32:25;53.13;;;17.77;;
17618;SDS011;8928;51.678;6.074;2024-01-11T00:35:12;51.97;;;18.77;;
17618;SDS011;8928;51.678;6.074;2024-01-11T00:37:59;52.10;;;18.57;;
17618;SDS011;8928;51.678;6.074;2024-01-11T00:40:46;57.63;;;18.70;;
17618;SDS011;8928;51.678;6.074;2024-01-11T00:43:34;52.43;;;17.47;;
17618;SDS011;8928;51.678;6.074;2024-01-11T00:46:21;50.33;;;17.70;;
17618;SDS011;8928;51.678;6.074;2024-01-11T00:49:09;55.50;;;18.27;;
17618;SDS011;8928;51.678;6.074;2024-01-11T00:51:56;52.90;;;18.53;;
17618;SDS011;8928;51.678;6.074;2024-01-11T00:54:43;55.00;;;18.40;;
17618;SDS011;8928;51.678;6.074;2024-01-11T00:57:30;59.90;;;19.57;;
17618;SDS011;8928;51.678;6.074;2024-01-11T01:00:17;57.77;;;18.77;;
17618;SDS011;8928;51.678;6.074;2024-01-11T01:03:04;52.70;;;18.47;;
17618;SDS011;8928;51.678;6.074;2024-01-11T01:05:53;53.70;;;18.97;;
17618;SDS011;8928;51.678;6.074;2024-01-11T01:08:40;57.97;;;19.63;;
17618;SDS011;8928;51.678;6.074;2024-01-11T01:11:27;59.40;;;19.17;;
17618;SDS011;8928;51.678;6.074;2024-01-11T01:14:14;56.37;;;19.10;;
17618;SDS011;8928;51.678;6.074;2024-01-11T01:17:01;55.57;;;18.13;;
17618;SDS011;8928;51.678;6.074;2024-01-11T01:19:49;62.70;;;19.97;;
17618;SDS011;8928;51.678;6.074;2024-01-11T01:22:37;51.23;;;18.03;;
17618;SDS011;8928;51.678;6.074;2024-01-11T01:25:24;54.93;;;19.03;;
17618;SDS011;8928;51.678;6.074;2024-01-11T01:28:11;55.93;;;18.87;;
17618;SDS011;8928;51.678;6.074;2024-01-11T01:30:58;55.97;;;19.53;;
17618;SDS011;8928;51.678;6.074;2024-01-11T01:33:45;60.73;;;19.57;;
17618;SDS011;8928;51.678;6.074;2024-01-11T01:36:32;59.10;;;19.63;;
17618;SDS011;8928;51.678;6.074;2024-01-11T01:39:20;58.33;;;19.73;;
17618;SDS011;8928;51.678;6.074;2024-01-11T01:42:07;56.80;;;18.97;;
17618;SDS011;8928;51.678;6.074;2024-01-11T01:44:54;53.13;;;18.60;;
17618;SDS011;8928;51.678;6.074;2024-01-11T01:47:42;54.40;;;18.83;;
17618;SDS011;8928;51.678;6.074;2024-01-11T01:50:30;55.27;;;19.43;;
17618;SDS011;8928;51.678;6.074;2024-01-11T01:53:17;56.60;;;18.87;;
17618;SDS011;8928;51.678;6.074;2024-01-11T01:56:07;56.93;;;18.37;;
17618;SDS011;8928;51.678;6.074;2024-01-11T01:58:55;53.83;;;19.57;;
17618;SDS011;8928;51.678;6.074;2024-01-11T02:01:42;55.83;;;19.77;;
17618;SDS011;8928;51.678;6.074;2024-01-11T02:04:29;53.57;;;18.80;;
17618;SDS011;8928;51.678;6.074;2024-01-11T02:07:17;56.80;;;18.63;;
17618;SDS011;8928;51.678;6.074;2024-01-11T02:10:06;56.33;;;18.00;;
17618;SDS011;8928;51.678;6.074;2024-01-11T02:12:55;57.60;;;19.00;;
17618;SDS011;8928;51.678;6.074;2024-01-11T02:15:43;55.63;;;19.10;;
17618;SDS011;8928;51.678;6.074;2024-01-11T02:18:31;50.67;;;17.83;;
17618;SDS011;8928;51.678;6.074;2024-01-11T02:21:18;51.57;;;17.67;;
17618;SDS011;8928;51.678;6.074;2024-01-11T02:24:07;54.43;;;18.77;;
17618;SDS011;8928;51.678;6.074;2024-01-11T02:26:57;52.47;;;17.57;;
17618;SDS011;8928;51.678;6.074;2024-01-11T02:29:45;54.67;;;18.23;;
17618;SDS011;8928;51.678;6.074;2024-01-11T02:32:32;51.03;;;18.00;;
17618;SDS011;8928;51.678;6.074;2024-01-11T02:35:19;52.93;;;18.43;;
17618;SDS011;8928;51.678;6.074;2024-01-11T02:38:06;52.67;;;18.27;;
17618;SDS011;8928;51.678;6.074;2024-01-11T02:40:54;52.60;;;17.30;;
17618;SDS011;8928;51.678;6.074;2024-01-11T02:43:46;53.83;;;17.63;;
17618;SDS011;8928;51.678;6.074;2024-01-11T02:46:33;48.07;;;16.00;;
17618;SDS011;8928;51.678;6.074;2024-01-11T02:49:20;57.40;;;18.70;;
17618;SDS011;8928;51.678;6.074;2024-01-11T02:52:07;54.27;;;17.47;;
17618;SDS011;8928;51.678;6.074;2024-01-11T02:54:54;55.40;;;17.17;;
17618;SDS011;8928;51.678;6.074;2024-01-11T02:57:42;51.83;;;17.73;;
17618;SDS011;8928;51.678;6.074;2024-01-11T03:00:30;46.10;;;17.13;;
17618;SDS011;8928;51.678;6.074;2024-01-11T03:03:17;48.30;;;16.17;;
17618;SDS011;8928;51.678;6.074;2024-01-11T03:06:04;51.10;;;16.83;;
17618;SDS011;8928;51.678;6.074;2024-01-11T03:08:51;55.30;;;17.33;;
17618;SDS011;8928;51.678;6.074;2024-01-11T03:11:38;53.70;;;17.30;;
17618;SDS011;8928;51.678;6.074;2024-01-11T03:14:27;48.83;;;16.60;;
17618;SDS011;8928;51.678;6.074;2024-01-11T03:17:14;49.17;;;17.20;;
17618;SDS011;8928;51.678;6.074;2024-01-11T03:20:01;50.73;;;16.90;;
17618;SDS011;8928;51.678;6.074;2024-01-11T03:22:50;52.43;;;17.17;;
17618;SDS011;8928;51.678;6.074;2024-01-11T03:25:37;55.60;;;17.53;;
17618;SDS011;8928;51.678;6.074;2024-01-11T03:28:24;51.03;;;17.37;;
17618;SDS011;8928;51.678;6.074;2024-01-11T03:31:13;49.20;;;16.37;;
17618;SDS011;8928;51.678;6.074;2024-01-11T03:34:00;50.90;;;17.47;;
17618;SDS011;8928;51.678;6.074;2024-01-11T03:36:47;47.90;;;16.37;;
17618;SDS011;8928;51.678;6.074;2024-01-11T03:39:34;50.53;;;16.50;;
17618;SDS011;8928;51.678;6.074;2024-01-11T03:42:21;51.03;;;17.10;;
17618;SDS011;8928;51.678;6.074;2024-01-11T03:45:09;49.80;;;16.63;;
17618;SDS011;8928;51.678;6.074;2024-01-11T03:47:57;54.17;;;17.70;;
17618;SDS011;8928;51.678;6.074;2024-01-11T03:50:44;47.00;;;16.23;;
17618;SDS011;8928;51.678;6.074;2024-01-11T03:53:34;49.70;;;16.23;;
17618;SDS011;8928;51.678;6.074;2024-01-11T03:56:21;48.00;;;16.03;;
17618;SDS011;8928;51.678;6.074;2024-01-11T03:59:10;47.40;;;16.40;;
17618;SDS011;8928;51.678;6.074;2024-01-11T04:01:57;46.53;;;16.20;;
17618;SDS011;8928;51.678;6.074;2024-01-11T04:04:45;47.80;;;15.77;;
17618;SDS011;8928;51.678;6.074;2024-01-11T04:07:33;48.03;;;15.67;;
17618;SDS011;8928;51.678;6.074;2024-01-11T04:10:20;50.23;;;16.10;;
17618;SDS011;8928;51.678;6.074;2024-01-11T04:13:07;50.93;;;16.30;;
17618;SDS011;8928;51.678;6.074;2024-01-11T04:15:54;48.53;;;15.77;;
17618;SDS011;8928;51.678;6.074;2024-01-11T04:18:41;46.83;;;15.13;;
17618;SDS011;8928;51.678;6.074;2024-01-11T04:21:30;52.87;;;16.07;;
17618;SDS011;8928;51.678;6.074;2024-01-11T04:24:17;48.57;;;16.37;;
17618;SDS011;8928;51.678;6.074;2024-01-11T04:27:04;47.50;;;15.80;;
17618;SDS011;8928;51.678;6.074;2024-01-11T04:29:51;45.33;;;15.57;;
17618;SDS011;8928;51.678;6.074;2024-01-11T04:32:38;44.77;;;15.40;;
17618;SDS011;8928;51.678;6.074;2024-01-11T04:35:25;52.60;;;16.03;;
17618;SDS011;8928;51.678;6.074;2024-01-11T04:38:13;47.00;;;15.57;;
17618;SDS011;8928;51.678;6.074;2024-01-11T04:41:00;43.43;;;15.67;;
17618;SDS011;8928;51.678;6.074;2024-01-11T04:43:47;48.87;;;16.10;;
17618;SDS011;8928;51.678;6.074;2024-01-11T04:46:34;47.60;;;15.70;;
17618;SDS011;8928;51.678;6.074;2024-01-11T04:49:22;49.43;;;16.17;;
17618;SDS011;8928;51.678;6.074;2024-01-11T04:52:09;49.63;;;16.83;;
17618;SDS011;8928;51.678;6.074;2024-01-11T04:54:57;50.27;;;15.73;;
17618;SDS011;8928;51.678;6.074;2024-01-11T04:57:44;44.73;;;16.00;;
17618;SDS011;8928;51.678;6.074;2024-01-11T05:00:31;48.87;;;15.93;;
17618;SDS011;8928;51.678;6.074;2024-01-11T05:03:18;48.33;;;15.93;;
17618;SDS011;8928;51.678;6.074;2024-01-11T05:06:05;46.10;;;16.20;;
17618;SDS011;8928;51.678;6.074;2024-01-11T05:08:53;43.43;;;15.53;;
17618;SDS011;8928;51.678;6.074;2024-01-11T05:11:41;50.70;;;15.83;;
17618;SDS011;8928;51.678;6.074;2024-01-11T05:14:28;45.70;;;15.00;;
17618;SDS011;8928;51.678;6.074;2024-01-11T05:17:15;44.90;;;15.40;;
17618;SDS011;8928;51.678;6.074;2024-01-11T05:20:02;43.30;;;15.53;;
17618;SDS011;8928;51.678;6.074;2024-01-11T05:22:51;48.83;;;15.87;;
17618;SDS011;8928;51.678;6.074;2024-01-11T05:25:38;45.93;;;15.30;;
17618;SDS011;8928;51.678;6.074;2024-01-11T05:28:26;46.90;;;15.90;;
17618;SDS011;8928;51.678;6.074;2024-01-11T05:31:13;46.23;;;15.50;;
17618;SDS011;8928;51.678;6.074;2024-01-11T05:34:02;45.60;;;15.33;;
17618;SDS011;8928;51.678;6.074;2024-01-11T05:36:49;44.57;;;15.07;;
17618;SDS011;8928;51.678;6.074;2024-01-11T05:39:36;42.03;;;15.03;;
17618;SDS011;8928;51.678;6.074;2024-01-11T05:42:23;45.33;;;15.83;;
17618;SDS011;8928;51.678;6.074;2024-01-11T05:45:11;46.30;;;14.47;;
17618;SDS011;8928;51.678;6.074;2024-01-11T05:48:02;46.60;;;15.23;;
17618;SDS011;8928;51.678;6.074;2024-01-11T05:50:51;47.33;;;15.97;;
17618;SDS011;8928;51.678;6.074;2024-01-11T05:53:38;42.43;;;14.70;;
17618;SDS011;8928;51.678;6.074;2024-01-11T05:56:25;46.17;;;14.90;;
17618;SDS011;8928;51.678;6.074;2024-01-11T05:59:12;47.13;;;15.87;;
17618;SDS011;8928;51.678;6.074;2024-01-11T06:02:00;44.33;;;14.57;;
17618;SDS011;8928;51.678;6.074;2024-01-11T06:04:47;44.80;;;14.67;;
17618;SDS011;8928;51.678;6.074;2024-01-11T06:07:34;41.53;;;14.47;;
17618;SDS011;8928;51.678;6.074;2024-01-11T06:10:21;45.63;;;14.97;;
17618;SDS011;8928;51.678;6.074;2024-01-11T06:13:08;47.90;;;14.90;;
17618;SDS011;8928;51.678;6.074;2024-01-11T06:15:55;44.83;;;15.10;;
17618;SDS011;8928;51.678;6.074;2024-01-11T06:18:44;42.77;;;14.43;;
17618;SDS011;8928;51.678;6.074;2024-01-11T06:21:31;41.97;;;14.43;;
17618;SDS011;8928;51.678;6.074;2024-01-11T06:24:18;42.60;;;14.90;;
17618;SDS011;8928;51.678;6.074;2024-01-11T06:27:05;44.43;;;14.27;;
17618;SDS011;8928;51.678;6.074;2024-01-11T06:29:52;42.10;;;14.80;;
17618;SDS011;8928;51.678;6.074;2024-01-11T06:32:39;45.97;;;15.67;;
17618;SDS011;8928;51.678;6.074;2024-01-11T06:35:28;42.40;;;15.13;;
17618;SDS011;8928;51.678;6.074;2024-01-11T06:38:16;52.93;;;15.80;;
17618;SDS011;8928;51.678;6.074;2024-01-11T06:41:03;42.07;;;15.00;;
17618;SDS011;8928;51.678;6.074;2024-01-11T06:43:50;46.13;;;15.43;;
17618;SDS011;8928;51.678;6.074;2024-01-11T06:46:37;44.03;;;15.07;;
17618;SDS011;8928;51.678;6.074;2024-01-11T06:49:26;43.30;;;15.43;;
17618;SDS011;8928;51.678;6.074;2024-01-11T06:52:15;45.23;;;14.90;;
17618;SDS011;8928;51.678;6.074;2024-01-11T06:55:02;44.10;;;15.50;;
17618;SDS011;8928;51.678;6.074;2024-01-11T06:57:50;45.17;;;15.40;;
17618;SDS011;8928;51.678;6.074;2024-01-11T07:00:37;45.90;;;14.93;;
17618;SDS011;8928;51.678;6.074;2024-01-11T07:03:28;48.20;;;15.80;;
17618;SDS011;8928;51.678;6.074;2024-01-11T07:06:15;47.87;;;15.87;;
17618;SDS011;8928;51.678;6.074;2024-01-11T07:09:03;45.07;;;15.90;;
17618;SDS011;8928;51.678;6.074;2024-01-11T07:11:51;50.50;;;15.67;;
17618;SDS011;8928;51.678;6.074;2024-01-11T07:14:38;46.43;;;15.83;;
17618;SDS011;8928;51.678;6.074;2024-01-11T07:17:25;51.73;;;16.20;;
17618;SDS011;8928;51.678;6.074;2024-01-11T07:20:12;56.27;;;17.10;;
17618;SDS011;8928;51.678;6.074;2024-01-11T07:23:01;45.43;;;15.70;;
17618;SDS011;8928;51.678;6.074;2024-01-11T07:25:50;45.00;;;15.93;;
17618;SDS011;8928;51.678;6.074;2024-01-11T07:28:37;47.57;;;16.27;;
17618;SDS011;8928;51.678;6.074;2024-01-11T07:31:24;45.97;;;16.00;;
17618;SDS011;8928;51.678;6.074;2024-01-11T07:34:12;46.43;;;15.37;;
17618;SDS011;8928;51.678;6.074;2024-01-11T07:36:59;49.37;;;16.23;;
17618;SDS011;8928;51.678;6.074;2024-01-11T07:39:46;46.27;;;16.73;;
17618;SDS011;8928;51.678;6.074;2024-01-11T07:42:34;48.90;;;15.70;;
17618;SDS011;8928;51.678;6.074;2024-01-11T07:45:21;47.97;;;16.33;;
17618;SDS011;8928;51.678;6.074;2024-01-11T07:48:08;48.67;;;16.63;;
17618;SDS011;8928;51.678;6.074;2024-01-11T07:50:55;47.40;;;16.10;;
17618;SDS011;8928;51.678;6.074;2024-01-11T07:53:43;46.40;;;15.47;;
17618;SDS011;8928;51.678;6.074;2024-01-11T07:56:30;44.47;;;15.43;;
17618;SDS011;8928;51.678;6.074;2024-01-11T07:59:18;49.30;;;15.63;;
17618;SDS011;8928;51.678;6.074;2024-01-11T08:02:05;47.43;;;16.23;;
17618;SDS011;8928;51.678;6.074;2024-01-11T08:04:52;50.73;;;17.10;;
17618;SDS011;8928;51.678;6.074;2024-01-11T08:07:40;47.43;;;15.13;;
17618;SDS011;8928;51.678;6.074;2024-01-11T08:10:27;46.60;;;16.63;;
17618;SDS011;8928;51.678;6.074;2024-01-11T08:13:16;47.23;;;16.20;;
17618;SDS011;8928;51.678;6.074;2024-01-11T08:16:04;51.03;;;16.33;;
17618;SDS011;8928;51.678;6.074;2024-01-11T08:18:54;51.57;;;17.30;;
17618;SDS011;8928;51.678;6.074;2024-01-11T08:21:41;45.57;;;16.33;;
17618;SDS011;8928;51.678;6.074;2024-01-11T08:24:29;49.20;;;17.07;;
17618;SDS011;8928;51.678;6.074;2024-01-11T08:27:16;51.70;;;17.47;;
17618;SDS011;8928;51.678;6.074;2024-01-11T08:30:03;52.07;;;17.13;;
17618;SDS011;8928;51.678;6.074;2024-01-11T08:32:52;53.77;;;17.30;;
17618;SDS011;8928;51.678;6.074;2024-01-11T08:35:41;51.67;;;17.67;;
17618;SDS011;8928;51.678;6.074;2024-01-11T08:38:28;50.33;;;17.77;;
17618;SDS011;8928;51.678;6.074;2024-01-11T08:41:15;55.60;;;18.67;;
17618;SDS011;8928;51.678;6.074;2024-01-11T08:44:02;57.33;;;18.03;;
17618;SDS011;8928;51.678;6.074;2024-01-11T08:46:50;59.03;;;17.53;;
17618;SDS011;8928;51.678;6.074;2024-01-11T08:49:39;54.83;;;18.10;;
17618;SDS011;8928;51.678;6.074;2024-01-11T08:52:26;51.17;;;18.07;;
17618;SDS011;8928;51.678;6.074;2024-01-11T08:55:13;51.00;;;19.10;;
17618;SDS011;8928;51.678;6.074;2024-01-11T08:58:00;57.47;;;18.97;;
17618;SDS011;8928;51.678;6.074;2024-01-11T09:00:47;55.97;;;18.90;;
17618;SDS011;8928;51.678;6.074;2024-01-11T09:03:34;51.37;;;19.00;;
17618;SDS011;8928;51.678;6.074;2024-01-11T09:06:23;50.90;;;19.00;;
17618;SDS011;8928;51.678;6.074;2024-01-11T09:09:10;56.43;;;19.87;;
17618;SDS011;8928;51.678;6.074;2024-01-11T09:11:58;50.67;;;19.40;;
17618;SDS011;8928;51.678;6.074;2024-01-11T09:14:45;56.20;;;20.43;;
17618;SDS011;8928;51.678;6.074;2024-01-11T09:17:32;54.17;;;19.33;;
17618;SDS011;8928;51.678;6.074;2024-01-11T09:20:19;58.57;;;21.23;;
17618;SDS011;8928;51.678;6.074;2024-01-11T09:23:08;55.50;;;19.87;;
17618;SDS011;8928;51.678;6.074;2024-01-11T09:25:56;58.13;;;20.80;;
17618;SDS011;8928;51.678;6.074;2024-01-11T09:28:43;60.50;;;21.07;;
17618;SDS011;8928;51.678;6.074;2024-01-11T09:31:31;62.50;;;21.33;;
17618;SDS011;8928;51.678;6.074;2024-01-11T09:34:18;68.17;;;22.50;;
17618;SDS011;8928;51.678;6.074;2024-01-11T09:37:05;58.53;;;21.00;;
17618;SDS011;8928;51.678;6.074;2024-01-11T09:39:53;55.73;;;21.00;;
17618;SDS011;8928;51.678;6.074;2024-01-11T09:42:40;55.80;;;19.67;;
17618;SDS011;8928;51.678;6.074;2024-01-11T09:45:28;68.70;;;22.83;;
17618;SDS011;8928;51.678;6.074;2024-01-11T09:48:15;68.40;;;22.00;;
17618;SDS011;8928;51.678;6.074;2024-01-11T09:51:03;71.57;;;23.33;;
17618;SDS011;8928;51.678;6.074;2024-01-11T09:53:50;59.47;;;20.80;;
17618;SDS011;8928;51.678;6.074;2024-01-11T09:56:42;66.10;;;23.23;;
17618;SDS011;8928;51.678;6.074;2024-01-11T09:59:29;54.90;;;20.20;;
17618;SDS011;8928;51.678;6.074;2024-01-11T10:02:17;57.90;;;21.50;;
17618;SDS011;8928;51.678;6.074;2024-01-11T10:05:05;55.63;;;21.00;;
17618;SDS011;8928;51.678;6.074;2024-01-11T10:07:53;58.30;;;20.50;;
17618;SDS011;8928;51.678;6.074;2024-01-11T10:10:40;51.40;;;19.77;;
17618;SDS011;8928;51.678;6.074;2024-01-11T10:13:28;56.07;;;20.77;;
17618;SDS011;8928;51.678;6.074;2024-01-11T10:16:18;54.20;;;20.07;;
17618;SDS011;8928;51.678;6.074;2024-01-11T10:19:05;54.70;;;20.33;;
17618;SDS011;8928;51.678;6.074;2024-01-11T10:21:52;51.77;;;20.90;;
17618;SDS011;8928;51.678;6.074;2024-01-11T10:24:39;53.67;;;20.37;;
17618;SDS011;8928;51.678;6.074;2024-01-11T10:27:26;58.07;;;21.00;;
17618;SDS011;8928;51.678;6.074;2024-01-11T10:30:15;53.53;;;20.40;;
17618;SDS011;8928;51.678;6.074;2024-01-11T10:33:03;59.07;;;22.00;;
17618;SDS011;8928;51.678;6.074;2024-01-11T10:35:50;54.93;;;22.30;;
17618;SDS011;8928;51.678;6.074;2024-01-11T10:38:38;57.60;;;21.87;;
17618;SDS011;8928;51.678;6.074;2024-01-11T10:41:25;54.47;;;21.00;;
17618;SDS011;8928;51.678;6.074;2024-01-11T10:44:16;53.70;;;21.03;;
17618;SDS011;8928;51.678;6.074;2024-01-11T10:47:07;55.20;;;21.17;;
17618;SDS011;8928;51.678;6.074;2024-01-11T10:49:57;54.87;;;20.43;;
17618;SDS011;8928;51.678;6.074;2024-01-11T10:52:50;54.10;;;20.63;;
17618;SDS011;8928;51.678;6.074;2024-01-11T10:55:49;52.37;;;20.47;;
17618;SDS011;8928;51.678;6.074;2024-01-11T10:58:36;51.43;;;20.40;;
17618;SDS011;8928;51.678;6.074;2024-01-11T11:01:26;50.20;;;20.43;;
17618;SDS011;8928;51.678;6.074;2024-01-11T11:04:15;50.13;;;19.47;;
17618;SDS011;8928;51.678;6.074;2024-01-11T11:07:02;50.33;;;19.90;;
17618;SDS011;8928;51.678;6.074;2024-01-11T11:09:52;47.33;;;19.03;;
17618;SDS011;8928;51.678;6.074;2024-01-11T11:12:41;44.10;;;18.83;;
17618;SDS011;8928;51.678;6.074;2024-01-11T11:15:31;48.33;;;18.10;;
17618;SDS011;8928;51.678;6.074;2024-01-11T11:18:19;45.90;;;18.60;;
17618;SDS011;8928;51.678;6.074;2024-01-11T11:21:10;50.20;;;19.47;;
17618;SDS011;8928;51.678;6.074;2024-01-11T11:23:57;47.07;;;18.93;;
17618;SDS011;8928;51.678;6.074;2024-01-11T11:26:44;45.70;;;18.63;;
17618;SDS011;8928;51.678;6.074;2024-01-11T11:29:32;48.43;;;18.63;;
17618;SDS011;8928;51.678;6.074;2024-01-11T11:32:25;42.17;;;17.43;;
17618;SDS011;8928;51.678;6.074;2024-01-11T11:35:22;46.77;;;17.87;;
17618;SDS011;8928;51.678;6.074;2024-01-11T11:38:18;46.00;;;17.17;;
17618;SDS011;8928;51.678;6.074;2024-01-11T11:41:06;46.27;;;17.30;;
17618;SDS011;8928;51.678;6.074;2024-01-11T11:43:53;41.23;;;17.07;;
17618;SDS011;8928;51.678;6.074;2024-01-11T11:46:40;43.43;;;18.13;;
17618;SDS011;8928;51.678;6.074;2024-01-11T11:52:43;44.07;;;17.03;;
17618;SDS011;8928;51.678;6.074;2024-01-11T11:55:32;41.50;;;16.63;;
17618;SDS011;8928;51.678;6.074;2024-01-11T11:58:21;41.10;;;17.60;;
17618;SDS011;8928;51.678;6.074;2024-01-11T12:01:09;44.23;;;16.67;;
17618;SDS011;8928;51.678;6.074;2024-01-11T12:03:56;46.27;;;17.87;;
17618;SDS011;8928;51.678;6.074;2024-01-11T12:06:43;43.00;;;17.67;;
17618;SDS011;8928;51.678;6.074;2024-01-11T12:09:31;41.20;;;17.43;;
17618;SDS011;8928;51.678;6.074;2024-01-11T12:12:19;43.13;;;18.50;;
17618;SDS011;8928;51.678;6.074;2024-01-11T12:15:07;38.90;;;17.33;;
17618;SDS011;8928;51.678;6.074;2024-01-11T12:17:57;41.07;;;17.07;;
17618;SDS011;8928;51.678;6.074;2024-01-11T12:20:44;41.67;;;16.90;;
17618;SDS011;8928;51.678;6.074;2024-01-11T12:23:32;41.03;;;17.33;;
17618;SDS011;8928;51.678;6.074;2024-01-11T12:26:20;40.53;;;17.43;;
17618;SDS011;8928;51.678;6.074;2024-01-11T12:29:09;42.03;;;17.93;;
17618;SDS011;8928;51.678;6.074;2024-01-11T12:31:56;43.17;;;17.10;;
17618;SDS011;8928;51.678;6.074;2024-01-11T12:34:44;43.77;;;17.50;;
17618;SDS011;8928;51.678;6.074;2024-01-11T12:37:32;45.33;;;18.30;;
17618;SDS011;8928;51.678;6.074;2024-01-11T12:40:19;40.60;;;17.17;;
17618;SDS011;8928;51.678;6.074;2024-01-11T12:43:07;42.93;;;17.27;;
17618;SDS011;8928;51.678;6.074;2024-01-11T12:45:55;43.77;;;16.93;;
17618;SDS011;8928;51.678;6.074;2024-01-11T12:48:43;41.77;;;17.00;;
17618;SDS011;8928;51.678;6.074;2024-01-11T12:51:30;41.50;;;16.77;;
17618;SDS011;8928;51.678;6.074;2024-01-11T12:54:17;37.47;;;16.30;;
17618;SDS011;8928;51.678;6.074;2024-01-11T12:57:04;38.53;;;16.17;;
17618;SDS011;8928;51.678;6.074;2024-01-11T12:59:52;35.87;;;14.97;;
17618;SDS011;8928;51.678;6.074;2024-01-11T13:02:41;32.60;;;12.63;;
17618;SDS011;8928;51.678;6.074;2024-01-11T13:05:29;31.50;;;13.07;;
17618;SDS011;8928;51.678;6.074;2024-01-11T13:08:20;26.67;;;10.57;;
17618;SDS011;8928;51.678;6.074;2024-01-11T13:11:08;23.07;;;9.83;;
17618;SDS011;8928;51.678;6.074;2024-01-11T13:13:56;16.37;;;6.83;;
17618;SDS011;8928;51.678;6.074;2024-01-11T13:16:46;18.50;;;6.60;;
17618;SDS011;8928;51.678;6.074;2024-01-11T13:19:35;18.10;;;6.73;;
17618;SDS011;8928;51.678;6.074;2024-01-11T13:22:23;18.50;;;6.30;;
17618;SDS011;8928;51.678;6.074;2024-01-11T13:25:11;19.23;;;7.23;;
17618;SDS011;8928;51.678;6.074;2024-01-11T13:27:58;17.43;;;6.27;;
17618;SDS011;8928;51.678;6.074;2024-01-11T13:30:46;21.40;;;7.10;;
17618;SDS011;8928;51.678;6.074;2024-01-11T13:33:34;21.47;;;7.60;;
17618;SDS011;8928;51.678;6.074;2024-01-11T13:36:22;21.00;;;7.50;;
17618;SDS011;8928;51.678;6.074;2024-01-11T13:39:09;24.83;;;8.00;;
17618;SDS011;8928;51.678;6.074;2024-01-11T13:41:56;23.03;;;7.97;;
17618;SDS011;8928;51.678;6.074;2024-01-11T13:44:43;23.03;;;8.03;;
17618;SDS011;8928;51.678;6.074;2024-01-11T13:47:30;23.40;;;8.30;;
17618;SDS011;8928;51.678;6.074;2024-01-11T13:50:17;26.37;;;8.80;;
17618;SDS011;8928;51.678;6.074;2024-01-11T13:53:06;31.43;;;8.63;;
17618;SDS011;8928;51.678;6.074;2024-01-11T13:55:53;27.63;;;9.10;;
17618;SDS011;8928;51.678;6.074;2024-01-11T13:58:40;27.57;;;9.27;;
17618;SDS011;8928;51.678;6.074;2024-01-11T14:01:30;29.07;;;9.43;;
17618;SDS011;8928;51.678;6.074;2024-01-11T14:04:17;27.67;;;9.40;;
17618;SDS011;8928;51.678;6.074;2024-01-11T14:07:08;29.97;;;9.30;;
17618;SDS011;8928;51.678;6.074;2024-01-11T14:09:56;31.07;;;9.17;;
17618;SDS011;8928;51.678;6.074;2024-01-11T14:12:43;27.90;;;9.33;;
17618;SDS011;8928;51.678;6.074;2024-01-11T14:15:30;30.37;;;9.03;;
17618;SDS011;8928;51.678;6.074;2024-01-11T14:18:17;29.90;;;9.77;;
17618;SDS011;8928;51.678;6.074;2024-01-11T14:21:05;33.50;;;10.63;;
17618;SDS011;8928;51.678;6.074;2024-01-11T14:23:52;34.43;;;10.40;;
17618;SDS011;8928;51.678;6.074;2024-01-11T14:26:40;32.07;;;10.57;;
17618;SDS011;8928;51.678;6.074;2024-01-11T14:29:28;35.90;;;11.10;;
17618;SDS011;8928;51.678;6.074;2024-01-11T14:32:15;33.23;;;11.17;;
17618;SDS011;8928;51.678;6.074;2024-01-11T14:35:04;36.27;;;12.27;;
17618;SDS011;8928;51.678;6.074;2024-01-11T14:37:52;40.77;;;12.53;;
17618;SDS011;8928;51.678;6.074;2024-01-11T14:40:39;42.83;;;12.33;;
17618;SDS011;8928;51.678;6.074;2024-01-11T14:43:28;38.90;;;11.80;;
17618;SDS011;8928;51.678;6.074;2024-01-11T14:46:16;42.77;;;12.67;;
17618;SDS011;8928;51.678;6.074;2024-01-11T14:49:03;49.53;;;15.13;;
17618;SDS011;8928;51.678;6.074;2024-01-11T14:51:53;41.13;;;12.40;;
17618;SDS011;8928;51.678;6.074;2024-01-11T14:54:40;43.73;;;12.83;;
17618;SDS011;8928;51.678;6.074;2024-01-11T14:57:27;41.23;;;11.60;;
17618;SDS011;8928;51.678;6.074;2024-01-11T15:00:16;38.13;;;11.57;;
17618;SDS011;8928;51.678;6.074;2024-01-11T15:03:03;38.27;;;11.90;;
17618;SDS011;8928;51.678;6.074;2024-01-11T15:05:51;39.03;;;12.10;;
17618;SDS011;8928;51.678;6.074;2024-01-11T15:08:38;45.83;;;12.33;;
17618;SDS011;8928;51.678;6.074;2024-01-11T15:11:25;70.20;;;24.67;;
17618;SDS011;8928;51.678;6.074;2024-01-11T15:14:13;71.47;;;23.70;;
17618;SDS011;8928;51.678;6.074;2024-01-11T15:17:01;58.87;;;19.57;;
17618;SDS011;8928;51.678;6.074;2024-01-11T15:19:49;45.23;;;13.67;;
17618;SDS011;8928;51.678;6.074;2024-01-11T15:22:36;45.87;;;13.83;;
17618;SDS011;8928;51.678;6.074;2024-01-11T15:25:23;41.90;;;13.40;;
17618;SDS011;8928;51.678;6.074;2024-01-11T15:28:12;38.57;;;12.00;;
17618;SDS011;8928;51.678;6.074;2024-01-11T15:30:59;43.40;;;12.37;;
17618;SDS011;8928;51.678;6.074;2024-01-11T15:33:47;39.77;;;11.53;;
17618;SDS011;8928;51.678;6.074;2024-01-11T15:36:34;39.33;;;11.60;;
17618;SDS011;8928;51.678;6.074;2024-01-11T15:39:21;44.20;;;12.90;;
17618;SDS011;8928;51.678;6.074;2024-01-11T15:42:09;43.00;;;12.30;;
17618;SDS011;8928;51.678;6.074;2024-01-11T15:44:56;40.10;;;12.03;;
17618;SDS011;8928;51.678;6.074;2024-01-11T15:47:43;41.07;;;11.87;;
17618;SDS011;8928;51.678;6.074;2024-01-11T15:50:31;40.67;;;11.90;;
17618;SDS011;8928;51.678;6.074;2024-01-11T15:53:18;37.20;;;11.53;;
17618;SDS011;8928;51.678;6.074;2024-01-11T15:56:05;40.97;;;12.33;;
17618;SDS011;8928;51.678;6.074;2024-01-11T15:58:52;43.93;;;12.53;;
17618;SDS011;8928;51.678;6.074;2024-01-11T16:01:39;45.27;;;12.27;;
17618;SDS011;8928;51.678;6.074;2024-01-11T16:04:26;43.17;;;12.60;;
17618;SDS011;8928;51.678;6.074;2024-01-11T16:07:15;47.70;;;13.00;;
17618;SDS011;8928;51.678;6.074;2024-01-11T16:10:02;43.43;;;12.70;;
17618;SDS011;8928;51.678;6.074;2024-01-11T16:12:51;44.20;;;12.60;;
17618;SDS011;8928;51.678;6.074;2024-01-11T16:15:38;45.60;;;12.17;;
17618;SDS011;8928;51.678;6.074;2024-01-11T16:18:25;46.50;;;12.93;;
17618;SDS011;8928;51.678;6.074;2024-01-11T16:21:12;45.70;;;12.87;;
17618;SDS011;8928;51.678;6.074;2024-01-11T16:24:00;46.53;;;13.73;;
17618;SDS011;8928;51.678;6.074;2024-01-11T16:26:47;42.50;;;12.37;;
17618;SDS011;8928;51.678;6.074;2024-01-11T16:29:34;41.67;;;13.80;;
17618;SDS011;8928;51.678;6.074;2024-01-11T16:32:22;48.70;;;13.67;;
17618;SDS011;8928;51.678;6.074;2024-01-11T16:35:09;39.73;;;12.03;;
17618;SDS011;8928;51.678;6.074;2024-01-11T16:37:56;43.93;;;12.00;;
17618;SDS011;8928;51.678;6.074;2024-01-11T16:40:45;42.03;;;12.07;;